Terminal Aerodrome Forecast
Issued by NWS

Home | Current Version | Previous Version | Text Only | Print | Product List | Glossary On
Versions: 1 2 3 4 5 6 7 8 9 10 11 12 13 14 15 16 17 18 19 20 21 22 23 24 25 26 27 28 29 30
000
FTUS42 KMFL 232340
TAFFXE
TAF
KFXE 232340Z 2400/2424 15008KT P6SM SCT020 BKN250
     FM240200 VRB03KT P6SM SCT025 SCT250
     FM241300 20010KT P6SM VCSH SCT035 SCT250
     FM241900 23012KT P6SM VCTS SCT025CB BKN050 BKN250=

USA.gov is the U.S. government's official web portal to all federal, state and local government web resources and services.